Time;durP1;ratioP1;P1;durP2;ratioP2;P2;SDS_P1;SDS_P2;PMS_P1;PMS_P2;Temp;Humidity;BMP_temperature;BMP_pressure;BME280_temperature;BME280_humidity;BME280_pressure;Samples;Min_cycle;Max_cycle;Signal;HPM_P1;HPM_P2
2023/06/07 00:01:47;;;;;;;11.35;5.72;;;;;;;15.26;88.36;101919.00;4993332;28;20073;-74
2023/06/07 00:04:12;;;;;;;13.25;6.15;;;;;;;15.21;88.64;101921.44;4993395;28;20057;-75
2023/06/07 00:06:39;;;;;;;15.65;6.10;;;;;;;15.22;88.61;101924.97;4993360;28;20037;-74
2023/06/07 00:09:07;;;;;;;12.57;6.15;;;;;;;15.13;88.90;101924.31;5011160;28;20229;-74
2023/06/07 00:11:32;;;;;;;11.57;5.60;;;;;;;15.14;89.33;101931.34;5010760;28;20391;-74
2023/06/07 00:13:59;;;;;;;10.90;6.10;;;;;;;15.14;89.17;101936.72;5010783;28;20030;-74
2023/06/07 00:16:26;;;;;;;16.30;6.43;;;;;;;15.09;88.80;101931.09;4993041;28;20038;-74
2023/06/07 00:18:51;;;;;;;14.68;6.22;;;;;;;15.09;89.14;101931.09;4993212;28;20025;-74
2023/06/07 00:21:19;;;;;;;12.60;5.80;;;;;;;15.01;89.44;101934.81;5010507;28;20018;-74
2023/06/07 00:23:45;;;;;;;11.18;5.80;;;;;;;14.99;89.59;101926.13;5010672;28;20137;-75
2023/06/07 00:26:11;;;;;;;14.68;5.60;;;;;;;14.90;89.44;101916.56;5010433;28;20508;-74
2023/06/07 00:28:36;;;;;;;13.27;6.32;;;;;;;14.99;88.85;101931.50;5010559;28;20038;-74
2023/06/07 00:31:01;;;;;;;13.02;6.43;;;;;;;15.02;89.63;101935.63;4992934;28;20064;-74
2023/06/07 00:33:27;;;;;;;15.57;6.85;;;;;;;14.98;88.97;101927.13;5010360;28;20109;-74
2023/06/07 00:35:52;;;;;;;12.45;6.45;;;;;;;14.97;89.37;101927.34;5010385;28;20037;-74
2023/06/07 00:38:17;;;;;;;13.52;6.18;;;;;;;14.92;89.09;101919.88;4992687;28;20477;-74
2023/06/07 00:40:43;;;;;;;14.85;6.18;;;;;;;14.91;89.66;101934.34;4992614;28;20037;-74
2023/06/07 00:43:08;;;;;;;12.35;5.60;;;;;;;14.89;89.53;101926.47;4992637;28;20038;-74
2023/06/07 00:45:33;;;;;;;12.80;6.13;;;;;;;14.87;89.49;101917.78;5010261;28;20056;-74
2023/06/07 00:48:00;;;;;;;14.88;6.07;;;;;;;14.89;89.62;101923.78;5010425;28;20042;-74
2023/06/07 00:50:26;;;;;;;12.40;5.15;;;;;;;14.90;89.18;101924.63;5010031;28;20121;-74
2023/06/07 00:52:52;;;;;;;9.50;5.03;;;;;;;14.83;90.10;101919.22;5009968;28;20037;-74
2023/06/07 00:55:17;;;;;;;12.95;6.70;;;;;;;14.78;90.14;101918.16;5010089;28;20022;-74
2023/06/07 00:57:43;;;;;;;12.32;6.85;;;;;;;14.80;89.57;101927.69;5009905;28;20044;-74
2023/06/07 01:00:13;;;;;;;12.85;6.55;;;;;;;14.74;90.25;101925.78;5009974;28;20030;-75
2023/06/07 01:02:38;;;;;;;11.48;5.80;;;;;;;14.75;89.58;101923.91;5010488;28;20473;-74
2023/06/07 01:05:06;;;;;;;15.15;6.45;;;;;;;14.74;90.08;101922.25;5009856;28;20028;-74
2023/06/07 01:07:32;;;;;;;12.70;5.93;;;;;;;14.74;89.91;101925.78;4992608;28;20080;-74
2023/06/07 01:09:59;;;;;;;11.35;6.15;;;;;;;14.71;90.34;101918.13;5009821;28;20116;-74
2023/06/07 01:12:26;;;;;;;13.90;5.57;;;;;;;14.75;90.04;101921.22;5009757;28;20473;-74
2023/06/07 01:14:53;;;;;;;18.25;6.22;;;;;;;14.73;90.17;101926.00;4992049;28;20400;-74
2023/06/07 01:17:24;;;;;;;13.88;5.80;;;;;;;14.72;90.01;101927.00;4991919;28;20034;-74
2023/06/07 01:19:53;;;;;;;11.93;6.80;;;;;;;14.64;89.87;101922.59;5009739;28;20559;-74
2023/06/07 01:22:20;;;;;;;14.10;6.63;;;;;;;14.59;90.71;101928.59;5009197;28;20504;-74
2023/06/07 01:24:47;;;;;;;15.23;6.72;;;;;;;14.51;90.50;101915.25;5009653;28;20554;-75
2023/06/07 01:27:15;;;;;;;13.05;5.93;;;;;;;14.50;91.19;101920.84;5009526;28;20080;-74
2023/06/07 01:29:41;;;;;;;16.08;6.80;;;;;;;14.39;91.36;101906.94;5009362;28;20034;-74
2023/06/07 01:32:08;;;;;;;13.10;5.55;;;;;;;14.46;91.40;101912.34;5009410;28;20014;-74
2023/06/07 01:34:35;;;;;;;12.38;7.00;;;;;;;14.43;90.98;101916.25;5009459;28;20026;-74
2023/06/07 01:37:01;;;;;;;10.65;5.68;;;;;;;14.32;92.01;101905.22;5009484;28;20083;-74
2023/06/07 01:39:29;;;;;;;17.77;6.22;;;;;;;14.30;92.44;101916.16;5009556;28;20076;-74
2023/06/07 01:41:56;;;;;;;14.18;6.68;;;;;;;14.23;92.48;101910.75;5009320;28;20030;-74
2023/06/07 01:44:22;;;;;;;15.23;6.15;;;;;;;14.23;93.16;101912.59;5009219;28;20053;-74
2023/06/07 01:46:47;;;;;;;15.13;5.90;;;;;;;14.19;93.05;101909.47;5009378;28;20073;-74
2023/06/07 01:49:17;;;;;;;11.35;5.50;;;;;;;14.14;93.04;101911.06;5009273;28;20445;-74
2023/06/07 01:51:42;;;;;;;13.25;5.75;;;;;;;14.10;93.37;101916.00;5009210;28;20033;-74
2023/06/07 01:54:08;;;;;;;11.52;6.32;;;;;;;14.08;93.71;101912.69;5009142;28;20382;-74
2023/06/07 01:57:00;;;;;;;12.55;5.70;;;;;;;14.05;93.67;101906.88;5009303;28;20053;-74
2023/06/07 01:59:31;;;;;;;13.73;5.72;;;;;;;14.00;94.39;101902.09;5009226;28;20038;-74
2023/06/07 02:01:59;;;;;;;24.40;7.25;;;;;;;13.94;94.71;101906.38;5009025;28;20061;-74
2023/06/07 02:04:28;;;;;;;15.68;6.70;;;;;;;13.90;94.93;101902.41;5009268;28;20040;-74
2023/06/07 02:06:59;;;;;;;16.08;6.85;;;;;;;13.85;95.07;101899.47;5009153;28;20133;-75
2023/06/07 02:09:27;;;;;;;12.55;6.57;;;;;;;13.78;95.45;101893.22;5008974;28;20041;-74
2023/06/07 02:11:52;;;;;;;12.25;5.65;;;;;;;13.78;95.07;101899.44;5009119;28;20026;-74
2023/06/07 02:14:20;;;;;;;12.27;5.85;;;;;;;13.78;95.86;101910.16;5009051;28;20393;-74
2023/06/07 02:16:46;;;;;;;15.73;6.72;;;;;;;13.71;95.59;101901.22;5009121;28;20399;-74
2023/06/07 02:19:12;;;;;;;16.80;6.57;;;;;;;13.71;95.46;101901.22;5009095;28;20037;-74
2023/06/07 02:21:38;;;;;;;12.52;6.32;;;;;;;13.69;96.34;101902.44;5008919;28;20029;-74
2023/06/07 02:24:07;;;;;;;14.75;6.63;;;;;;;13.67;96.30;101904.47;4991372;28;20025;-74
2023/06/07 02:26:33;;;;;;;18.88;7.18;;;;;;;13.61;96.23;101905.25;5008742;28;20062;-75
2023/06/07 02:28:59;;;;;;;13.98;6.22;;;;;;;13.55;96.75;101910.34;5008909;28;20038;-74
2023/06/07 02:31:25;;;;;;;18.10;8.25;;;;;;;13.55;97.42;101901.47;5008964;28;20032;-74
2023/06/07 02:33:52;;;;;;;20.90;7.57;;;;;;;13.54;97.57;101902.47;4991463;28;20483;-74
2023/06/07 02:36:25;;;;;;;16.10;7.07;;;;;;;13.50;96.97;101895.84;5011970;28;20030;-74
2023/06/07 02:38:51;;;;;;;16.63;6.53;;;;;;;13.49;97.29;101895.03;5012668;28;20388;-74
2023/06/07 02:41:16;;;;;;;16.00;7.60;;;;;;;13.46;97.91;101900.75;5012691;28;20033;-74
2023/06/07 02:43:43;;;;;;;17.10;6.40;;;;;;;13.48;97.00;101903.25;5012433;28;20430;-74
2023/06/07 02:46:09;;;;;;;13.82;5.88;;;;;;;13.43;97.75;101916.38;5012485;28;20038;-74
2023/06/07 02:48:35;;;;;;;14.77;7.95;;;;;;;13.39;97.61;101897.19;5012446;28;20397;-74
2023/06/07 02:51:00;;;;;;;16.50;7.00;;;;;;;13.42;97.50;101917.41;5012286;28;20083;-74
2023/06/07 02:53:27;;;;;;;16.40;6.88;;;;;;;13.43;97.47;101914.53;5012345;28;20436;-75
2023/06/07 02:55:52;;;;;;;26.45;9.10;;;;;;;13.46;98.16;101910.63;5012575;28;20034;-74
2023/06/07 02:58:18;;;;;;;15.38;7.38;;;;;;;13.42;97.91;101915.56;5012297;28;20088;-74
2023/06/07 03:00:46;;;;;;;15.73;6.45;;;;;;;13.38;97.50;101912.41;5012146;28;20377;-74
2023/06/07 03:03:12;;;;;;;14.55;6.50;;;;;;;13.34;97.66;101902.28;5012133;28;20029;-74
2023/06/07 03:05:40;;;;;;;16.40;8.20;;;;;;;13.33;97.83;101908.63;5012101;28;20477;-74
2023/06/07 03:08:10;;;;;;;14.95;6.47;;;;;;;13.31;98.03;101916.88;4995110;28;20469;-74
2023/06/07 03:10:35;;;;;;;16.33;7.47;;;;;;;13.28;98.55;101911.06;5011789;28;20128;-74
2023/06/07 03:13:00;;;;;;;16.27;6.72;;;;;;;13.25;99.06;101917.59;4994229;28;20460;-74
2023/06/07 03:15:27;;;;;;;12.35;6.10;;;;;;;13.24;99.01;101918.63;5011642;28;20033;-74
2023/06/07 03:17:53;;;;;;;16.80;7.68;;;;;;;13.23;98.10;101913.44;5012000;28;20465;-74
2023/06/07 03:20:20;;;;;;;15.45;7.03;;;;;;;13.15;98.67;101911.69;5011866;28;20038;-74
2023/06/07 03:22:46;;;;;;;16.25;7.55;;;;;;;13.14;98.45;101921.59;5011858;28;20022;-74
2023/06/07 03:25:11;;;;;;;15.10;6.45;;;;;;;13.13;98.88;101908.41;5011682;28;20044;-74
2023/06/07 03:27:36;;;;;;;17.30;7.80;;;;;;;13.10;99.11;101898.88;4993687;28;20088;-74
2023/06/07 03:30:03;;;;;;;24.63;7.35;;;;;;;13.06;99.16;101907.47;5011474;28;20046;-74
2023/06/07 03:32:28;;;;;;;15.63;7.38;;;;;;;13.11;99.14;101911.25;5011428;28;20125;-74
2023/06/07 03:34:53;;;;;;;14.40;6.15;;;;;;;13.10;99.15;101914.94;5011609;28;20117;-75
2023/06/07 03:37:19;;;;;;;13.13;6.45;;;;;;;13.07;98.91;101918.00;5011522;28;20034;-74
2023/06/07 03:39:45;;;;;;;16.40;6.68;;;;;;;13.05;99.10;101919.22;5011485;28;20519;-74
2023/06/07 03:42:10;;;;;;;15.70;6.57;;;;;;;13.04;98.64;101922.88;5011693;28;20037;-74
2023/06/07 03:44:35;;;;;;;14.88;6.03;;;;;;;12.99;98.76;101920.75;5011460;28;20042;-74
2023/06/07 03:47:01;;;;;;;15.55;8.45;;;;;;;12.98;99.57;101923.66;5010926;28;20026;-73
2023/06/07 03:49:26;;;;;;;18.85;7.00;;;;;;;12.96;99.68;101920.31;5011592;28;20053;-74
2023/06/07 03:51:51;;;;;;;16.05;7.90;;;;;;;12.93;100.00;101924.19;5011492;28;20025;-74
2023/06/07 03:54:17;;;;;;;15.48;6.35;;;;;;;12.90;99.78;101917.38;5011525;28;20491;-74
2023/06/07 03:56:42;;;;;;;13.90;6.70;;;;;;;12.97;99.84;101922.81;5011212;28;20038;-74
2023/06/07 03:59:08;;;;;;;15.02;5.68;;;;;;;12.94;99.70;101920.50;4993588;28;20032;-74
2023/06/07 04:01:34;;;;;;;17.02;7.07;;;;;;;12.92;99.30;101922.53;5010902;28;20549;-74
2023/06/07 04:03:59;;;;;;;12.73;7.15;;;;;;;12.86;99.70;101912.56;4993475;28;20500;-74
2023/06/07 04:06:25;;;;;;;17.38;7.32;;;;;;;12.85;99.98;101911.72;5011052;28;20443;-74
2023/06/07 04:08:56;;;;;;;14.82;5.95;;;;;;;12.81;100.00;101910.47;5010971;28;20036;-74
2023/06/07 04:11:22;;;;;;;;;;;;;;;12.91;98.88;101908.31;5011434;28;20512;-74
2023/06/07 04:13:47;;;;;;;15.20;5.43;;;;;;;12.88;99.57;101913.22;5010882;28;19976;-74
2023/06/07 04:16:12;;;;;;;11.60;5.55;;;;;;;12.88;100.00;101918.56;4993015;28;20373;-74
2023/06/07 04:18:38;;;;;;;13.60;6.15;;;;;;;12.81;100.00;101902.44;5011128;28;20034;-74
2023/06/07 04:21:03;;;;;;;12.07;5.82;;;;;;;12.94;99.95;101915.13;5010895;28;20034;-74
2023/06/07 04:23:29;;;;;;;17.25;5.70;;;;;;;12.95;99.19;101911.47;5010786;28;20057;-74
2023/06/07 04:25:54;;;;;;;11.65;5.82;;;;;;;12.90;99.87;101906.66;4992897;28;20499;-74
2023/06/07 04:28:23;;;;;;;12.25;5.88;;;;;;;12.92;98.72;101909.97;5010574;28;20049;-74
2023/06/07 04:30:51;;;;;;;19.45;6.60;;;;;;;12.98;99.22;101927.16;4993259;28;20057;-74
2023/06/07 04:33:18;;;;;;;11.23;6.25;;;;;;;13.01;99.07;101931.31;5010464;28;20120;-74
2023/06/07 04:35:44;;;;;;;14.90;6.65;;;;;;;13.04;99.40;101931.75;5010479;28;20030;-74
2023/06/07 04:38:11;;;;;;;12.98;6.10;;;;;;;13.03;98.87;101923.91;5010466;28;20504;-74
2023/06/07 04:40:41;;;;;;;11.57;5.35;;;;;;;13.04;98.08;101930.94;5010350;28;20069;-74
2023/06/07 04:43:08;;;;;;;15.10;6.75;;;;;;;13.01;99.11;101926.78;5010833;28;20101;-74
2023/06/07 04:45:40;;;;;;;17.42;6.85;;;;;;;13.00;99.08;101940.38;5010276;28;20083;-74
2023/06/07 04:48:07;;;;;;;21.08;6.35;;;;;;;13.00;98.47;101933.16;5010228;28;20026;-74
2023/06/07 04:50:33;;;;;;;22.95;6.70;;;;;;;12.96;98.72;101934.53;5010143;28;20053;-74
2023/06/07 04:53:02;;;;;;;12.75;6.60;;;;;;;12.99;98.21;101931.47;5010220;28;20091;-74
2023/06/07 04:55:30;;;;;;;14.40;5.72;;;;;;;13.00;98.64;101941.19;4992911;28;20116;-74
2023/06/07 04:57:56;;;;;;;16.00;5.93;;;;;;;12.97;98.45;101928.19;5009209;28;20068;-74
2023/06/07 05:00:25;;;;;;;15.82;5.95;;;;;;;12.90;98.05;101919.22;5009505;28;20033;-74
2023/06/07 05:02:52;;;;;;;13.65;5.72;;;;;;;12.96;98.55;101933.72;5010405;28;20420;-74
2023/06/07 05:05:19;;;;;;;11.32;5.38;;;;;;;12.97;98.57;101930.00;5010037;28;20080;-74
2023/06/07 05:07:44;;;;;;;15.55;5.07;;;;;;;13.01;97.33;101936.66;5010159;28;20037;-75
2023/06/07 05:10:10;;;;;;;13.60;6.70;;;;;;;12.98;96.64;101934.34;5010128;28;20073;-74
2023/06/07 05:12:35;;;;;;;12.82;6.55;;;;;;;13.02;97.03;101936.47;4992150;28;20080;-74
2023/06/07 05:15:01;;;;;;;13.02;5.97;;;;;;;13.04;97.03;101938.97;5009805;28;20385;-73
2023/06/07 05:17:28;;;;;;;17.48;6.38;;;;;;;13.03;96.77;101935.47;5009748;28;20493;-74
2023/06/07 05:19:56;;;;;;;14.95;5.82;;;;;;;13.02;97.62;101936.47;5009732;28;21127;-74
2023/06/07 05:22:22;;;;;;;15.77;6.20;;;;;;;13.05;97.35;101932.59;4992156;28;20038;-75
2023/06/07 05:24:47;;;;;;;15.63;5.00;;;;;;;13.07;97.24;101942.13;5009564;28;20045;-74
2023/06/07 05:27:14;;;;;;;21.55;8.07;;;;;;;13.08;96.88;101942.94;4991900;28;20049;-74
2023/06/07 05:29:39;;;;;;;16.45;4.95;;;;;;;13.10;97.69;101933.69;4991952;28;20459;-74
2023/06/07 05:32:05;;;;;;;12.45;5.80;;;;;;;13.18;97.35;101942.63;5009409;28;20109;-74
2023/06/07 05:34:31;;;;;;;16.58;7.68;;;;;;;13.23;96.71;101948.25;5009171;28;20029;-75
2023/06/07 05:36:57;;;;;;;8.93;5.10;;;;;;;13.18;97.04;101934.59;5009824;28;20026;-75
2023/06/07 05:39:23;;;;;;;14.73;6.38;;;;;;;13.23;96.74;101938.41;5009563;28;21009;-74
2023/06/07 05:41:49;;;;;;;16.30;6.88;;;;;;;13.25;97.04;101939.00;5009251;28;20044;-75
2023/06/07 05:44:14;;;;;;;14.32;6.78;;;;;;;13.24;96.68;101945.41;5009451;28;20026;-75
2023/06/07 05:46:40;;;;;;;16.00;5.72;;;;;;;13.21;95.70;101935.06;5009613;28;20037;-74
2023/06/07 05:49:05;;;;;;;12.70;6.05;;;;;;;13.18;96.38;101935.44;5009484;28;20424;-75
2023/06/07 05:51:31;;;;;;;19.45;7.03;;;;;;;13.21;95.86;101947.63;5009424;28;20026;-74
2023/06/07 05:53:56;;;;;;;15.95;6.68;;;;;;;13.20;94.92;101948.63;5009379;28;20461;-75
2023/06/07 05:56:22;;;;;;;17.42;7.97;;;;;;;13.19;95.08;101957.69;4991718;28;20049;-75
2023/06/07 05:58:49;;;;;;;19.05;6.93;;;;;;;13.23;94.95;101956.28;5009411;28;20442;-75
2023/06/07 06:01:15;;;;;;;14.52;6.07;;;;;;;13.24;94.18;101947.25;5009258;28;20030;-75
2023/06/07 06:03:41;;;;;;;16.40;5.55;;;;;;;13.29;95.54;101955.59;4975434;28;20108;-75
2023/06/07 06:06:17;;;;;;;19.58;6.57;;;;;;;13.35;95.29;101966.38;5009176;28;20045;-75
2023/06/07 06:08:43;;;;;;;15.23;6.55;;;;;;;13.36;94.34;101968.06;5009977;28;20042;-75
2023/06/07 06:11:13;;;;;;;14.48;6.03;;;;;;;13.40;94.74;101957.78;5013259;28;20523;-76
2023/06/07 06:13:39;;;;;;;15.23;5.95;;;;;;;13.48;94.51;101955.00;4995617;28;20036;-76
2023/06/07 06:16:05;;;;;;;13.45;6.85;;;;;;;13.61;92.27;101962.34;5013274;28;20447;-76
2023/06/07 06:18:30;;;;;;;18.02;7.13;;;;;;;13.63;90.85;101959.50;5008760;28;20033;-78
2023/06/07 06:20:57;;;;;;;16.48;6.50;;;;;;;13.66;91.54;101959.13;5006540;28;20030;-73
2023/06/07 06:23:23;;;;;;;13.38;6.03;;;;;;;13.71;91.07;101954.00;5007596;28;20377;-72
2023/06/07 06:25:48;;;;;;;18.55;7.78;;;;;;;13.75;90.30;101955.28;5007097;28;20032;-76
2023/06/07 06:28:14;;;;;;;16.77;6.20;;;;;;;13.77;90.62;101961.28;5006430;28;20056;-72
2023/06/07 06:30:39;;;;;;;12.70;5.75;;;;;;;13.78;90.50;101963.78;5005801;28;20092;-75
2023/06/07 06:33:05;;;;;;;18.15;5.88;;;;;;;13.88;89.73;101971.50;5006467;28;20678;-75
2023/06/07 06:35:32;;;;;;;13.75;6.50;;;;;;;13.87;89.90;101974.38;5006868;28;20171;-74
2023/06/07 06:37:59;;;;;;;15.07;6.63;;;;;;;13.94;89.88;101975.28;5007043;28;20264;-74
2023/06/07 06:40:24;;;;;;;16.63;6.63;;;;;;;13.90;89.30;101969.47;5007051;28;20964;-74
2023/06/07 06:42:50;;;;;;;16.27;5.32;;;;;;;13.94;89.35;101978.81;5007428;28;20030;-74
2023/06/07 06:45:16;;;;;;;14.77;5.80;;;;;;;14.00;90.51;101972.66;4989160;28;20033;-74
2023/06/07 06:47:41;;;;;;;12.20;5.20;;;;;;;14.05;88.61;101980.13;5007047;28;20483;-74
2023/06/07 06:50:09;;;;;;;13.35;5.88;;;;;;;14.09;89.06;101972.53;5006469;28;20100;-75
2023/06/07 06:52:34;;;;;;;12.20;4.70;;;;;;;14.10;88.03;101985.75;5006837;28;20479;-75
2023/06/07 06:54:59;;;;;;;12.30;5.35;;;;;;;14.12;88.15;101985.56;5006895;28;20037;-75
2023/06/07 06:57:25;;;;;;;19.95;5.47;;;;;;;14.19;87.42;101994.50;5006573;28;20064;-74
2023/06/07 06:59:50;;;;;;;14.88;6.35;;;;;;;14.22;88.49;101999.47;5005479;28;20117;-72
2023/06/07 07:02:16;;;;;;;10.85;6.10;;;;;;;14.28;87.95;102003.25;5005380;28;20038;-74
2023/06/07 07:04:42;;;;;;;13.35;5.13;;;;;;;14.36;87.01;101998.59;4988606;28;20030;-71
2023/06/07 07:07:07;;;;;;;11.90;5.88;;;;;;;14.46;87.40;102008.97;5006097;28;20141;-72
2023/06/07 07:09:33;;;;;;;22.80;6.45;;;;;;;14.51;87.58;102013.75;4994972;28;20048;-71
2023/06/07 07:11:58;;;;;;;13.30;5.40;;;;;;;14.54;87.13;102008.88;4987859;28;20120;-71
2023/06/07 07:14:24;;;;;;;23.45;6.32;;;;;;;14.62;87.38;102008.75;5006041;28;20101;-72
2023/06/07 07:16:49;;;;;;;19.95;5.50;;;;;;;14.68;87.50;101993.69;5006568;28;20041;-71
2023/06/07 07:19:15;;;;;;;14.27;6.63;;;;;;;14.80;86.96;102000.19;5006297;28;20104;-72
2023/06/07 07:21:43;;;;;;;13.05;6.05;;;;;;;14.79;85.60;102001.22;5004040;28;20030;-72
2023/06/07 07:24:08;;;;;;;16.52;5.18;;;;;;;14.69;85.82;101985.44;5005093;28;20478;-71
2023/06/07 07:26:35;;;;;;;20.52;6.03;;;;;;;14.69;86.06;101989.97;5005888;28;20053;-72
2023/06/07 07:29:01;;;;;;;11.82;5.18;;;;;;;14.65;86.24;101988.72;5005964;28;20025;-72
2023/06/07 07:31:26;;;;;;;14.35;5.82;;;;;;;14.62;85.66;102005.22;5005358;28;20025;-71
2023/06/07 07:33:52;;;;;;;16.05;6.70;;;;;;;14.59;86.24;102006.44;5005923;28;20040;-72
2023/06/07 07:36:21;;;;;;;16.15;6.05;;;;;;;14.52;87.06;101980.53;5006161;28;20033;-71
2023/06/07 07:38:47;;;;;;;11.60;5.03;;;;;;;14.75;85.62;102002.63;5005680;28;20710;-72
2023/06/07 07:41:14;;;;;;;17.75;5.95;;;;;;;14.78;84.82;102007.63;5005640;28;20068;-71
2023/06/07 07:43:39;;;;;;;14.05;6.53;;;;;;;14.88;84.34;102001.88;5006181;28;20025;-72
2023/06/07 07:46:05;;;;;;;12.70;5.80;;;;;;;15.00;85.00;102010.22;5005669;28;20036;-72
2023/06/07 07:48:30;;;;;;;15.52;5.90;;;;;;;15.05;83.74;102015.84;4995643;28;20034;-70
2023/06/07 07:50:55;;;;;;;12.73;5.68;;;;;;;15.13;84.01;102018.38;5005173;28;20030;-71
2023/06/07 07:53:21;;;;;;;16.88;5.70;;;;;;;15.19;83.16;102016.72;5005771;28;20091;-71
2023/06/07 07:55:46;;;;;;;17.08;5.00;;;;;;;15.24;82.46;102009.72;5005688;28;20500;-72
2023/06/07 07:58:11;;;;;;;13.50;5.18;;;;;;;15.50;83.15;102003.66;5005054;28;20095;-70
2023/06/07 08:00:37;;;;;;;16.73;6.00;;;;;;;15.76;82.90;102002.94;5004995;28;20053;-72
2023/06/07 08:03:03;;;;;;;16.40;6.05;;;;;;;16.02;80.72;102012.13;5005901;28;20050;-74
2023/06/07 08:05:28;;;;;;;13.13;6.05;;;;;;;16.14;78.10;102002.41;4987418;28;20034;-73
2023/06/07 08:07:54;;;;;;;13.02;5.55;;;;;;;16.16;78.41;101996.81;5005338;28;20029;-75
2023/06/07 08:10:19;;;;;;;15.13;6.57;;;;;;;16.42;76.76;102010.28;5004797;28;20473;-75
2023/06/07 08:12:44;;;;;;;15.80;5.35;;;;;;;16.66;74.50;102016.06;5005411;28;20099;-73
2023/06/07 08:15:10;;;;;;;14.32;5.22;;;;;;;17.62;69.62;102023.50;5005248;28;20029;-75
2023/06/07 08:17:36;;;;;;;13.15;5.60;;;;;;;18.77;65.44;102025.28;5005101;28;20034;-74
2023/06/07 08:20:04;;;;;;;12.02;5.63;;;;;;;19.13;62.81;102013.66;4987287;28;20104;-74
2023/06/07 08:22:30;;;;;;;11.07;5.82;;;;;;;18.95;63.79;102008.25;5004838;28;20109;-74
2023/06/07 08:24:55;;;;;;;15.52;5.45;;;;;;;19.69;61.46;102009.88;5005311;28;20358;-74
2023/06/07 08:27:21;;;;;;;12.80;5.93;;;;;;;20.83;58.06;102010.78;5004873;28;20086;-74
2023/06/07 08:29:46;;;;;;;14.35;5.05;;;;;;;22.05;54.65;102009.75;5004475;28;20108;-74
2023/06/07 08:32:12;;;;;;;11.50;5.13;;;;;;;23.33;52.23;102001.59;5004042;28;20080;-73
2023/06/07 08:34:39;;;;;;;13.70;4.82;;;;;;;23.84;48.85;102010.38;5004355;28;20407;-75
2023/06/07 08:37:06;;;;;;;9.65;5.10;;;;;;;23.14;49.04;102011.19;5005247;28;20025;-75
2023/06/07 08:39:31;;;;;;;12.23;6.38;;;;;;;21.81;52.22;102006.34;4986817;28;20044;-74
2023/06/07 08:41:56;;;;;;;16.35;5.43;;;;;;;20.71;55.56;101999.97;5004535;28;20501;-73
2023/06/07 08:44:22;;;;;;;10.10;5.35;;;;;;;20.77;56.68;102009.88;5004839;28;20481;-74
2023/06/07 08:46:48;;;;;;;17.83;5.88;;;;;;;21.16;55.93;102010.16;5004438;28;20572;-74
2023/06/07 08:49:13;;;;;;;11.50;5.82;;;;;;;20.90;55.43;102015.03;5004293;28;20041;-75
2023/06/07 08:51:42;;;;;;;11.20;5.35;;;;;;;20.45;57.54;102012.88;5004221;28;20571;-71
2023/06/07 08:54:09;;;;;;;10.85;5.63;;;;;;;20.49;57.89;102002.41;5003409;28;20081;-73
2023/06/07 08:56:35;;;;;;;11.30;5.60;;;;;;;20.25;58.81;102020.50;5004806;28;20018;-71
2023/06/07 08:59:04;;;;;;;13.23;5.55;;;;;;;19.63;60.18;102018.88;5003961;28;20109;-76
2023/06/07 09:01:34;;;;;;;13.05;6.43;;;;;;;19.20;62.38;102019.00;5003958;28;20030;-75
2023/06/07 09:04:00;;;;;;;11.85;5.25;;;;;;;19.11;64.23;102014.94;4986814;28;20029;-74
2023/06/07 09:06:26;;;;;;;16.42;6.25;;;;;;;18.92;64.34;102011.41;5003599;28;20038;-75
2023/06/07 09:08:52;;;;;;;15.43;5.47;;;;;;;18.64;65.41;102023.47;5004044;28;20115;-74
2023/06/07 09:11:18;;;;;;;12.75;6.25;;;;;;;18.46;66.96;102018.03;5003806;28;20056;-74
2023/06/07 09:13:43;;;;;;;10.27;5.03;;;;;;;18.43;69.33;102021.19;4986100;28;20029;-76
2023/06/07 09:16:11;;;;;;;13.98;5.72;;;;;;;18.51;69.09;102024.41;5003801;28;20041;-74
2023/06/07 09:18:43;;;;;;;11.80;5.90;;;;;;;18.67;69.03;102019.50;5003494;28;20030;-76
2023/06/07 09:21:21;;;;;;;12.88;7.03;;;;;;;18.75;67.92;102008.44;5003724;28;20477;-76
2023/06/07 09:23:47;;;;;;;13.60;5.90;;;;;;;18.70;67.65;102010.94;5003597;28;20677;-75
2023/06/07 09:26:14;;;;;;;14.82;6.15;;;;;;;18.56;68.70;102007.56;4986360;28;20119;-77
2023/06/07 09:28:39;;;;;;;13.48;6.68;;;;;;;18.41;70.30;102005.19;5003906;28;20500;-77
2023/06/07 09:31:04;;;;;;;17.52;6.97;;;;;;;18.39;69.98;102010.81;5003472;28;20022;-77
2023/06/07 09:33:35;;;;;;;16.38;7.30;;;;;;;18.20;69.95;102003.69;5004050;28;20032;-78
2023/06/07 09:36:04;;;;;;;17.27;6.47;;;;;;;18.00;70.46;102008.38;4976810;28;20037;-77
2023/06/07 09:38:30;;;;;;;14.05;7.18;;;;;;;17.82;72.64;102001.88;5003268;28;20435;-77
2023/06/07 09:40:59;;;;;;;15.82;7.00;;;;;;;17.73;72.55;102008.50;5003054;28;20026;-78
2023/06/07 09:43:25;;;;;;;17.33;6.55;;;;;;;17.70;74.21;102011.66;5003642;28;20026;-77
2023/06/07 09:45:55;;;;;;;16.02;6.53;;;;;;;17.70;74.04;102007.06;5003974;28;20080;-77
2023/06/07 09:48:21;;;;;;;16.27;6.55;;;;;;;17.68;73.99;102000.25;4985177;28;20377;-78
2023/06/07 09:50:57;;;;;;;12.43;5.43;;;;;;;17.75;73.59;102001.84;5003487;28;20053;-79
2023/06/07 09:53:22;;;;;;;13.98;6.93;;;;;;;17.74;73.33;101999.41;5004189;28;20061;-78
2023/06/07 09:55:48;;;;;;;15.52;6.75;;;;;;;17.82;72.40;102004.56;5003406;28;20034;-78
2023/06/07 09:58:18;;;;;;;15.52;6.93;;;;;;;17.80;72.71;102009.34;5003582;28;20105;-78
2023/06/07 10:00:44;;;;;;;13.80;6.80;;;;;;;17.74;73.35;101999.41;5002985;28;20022;-79
2023/06/07 10:03:09;;;;;;;13.45;6.38;;;;;;;17.64;73.27;102009.81;5003456;28;20317;-79
2023/06/07 10:05:35;;;;;;;14.98;7.65;;;;;;;17.58;74.00;102000.72;5003678;28;20060;-77
2023/06/07 10:08:02;;;;;;;14.50;7.28;;;;;;;17.58;74.54;101994.47;5003363;28;20038;-78
2023/06/07 10:10:28;;;;;;;17.13;6.90;;;;;;;17.68;74.54;101998.41;4985463;28;20029;-75
2023/06/07 10:12:56;;;;;;;13.95;6.97;;;;;;;17.69;73.58;102000.03;5002946;28;20022;-74
2023/06/07 10:15:24;;;;;;;14.05;6.47;;;;;;;17.66;74.01;101999.66;4986129;28;20022;-79
2023/06/07 10:18:17;;;;;;;14.90;7.07;;;;;;;17.71;74.05;102008.75;4968962;28;20100;-77
2023/06/07 10:21:02;;;;;;;23.83;8.02;;;;;;;17.82;74.69;102007.25;5001443;28;20045;-78
2023/06/07 10:23:34;;;;;;;23.15;6.95;;;;;;;17.95;73.54;101995.56;5003517;28;20028;-78
2023/06/07 10:26:04;;;;;;;21.17;7.03;;;;;;;18.01;71.71;101999.25;5002946;28;20057;-78
2023/06/07 10:28:32;;;;;;;13.98;7.13;;;;;;;18.10;72.10;101992.53;5003267;28;20084;-78
2023/06/07 10:31:05;;;;;;;16.90;6.25;;;;;;;18.14;71.63;101993.75;5002757;28;20025;-78
2023/06/07 10:33:32;;;;;;;14.73;6.88;;;;;;;18.36;70.88;102000.44;5003583;28;20034;-79
2023/06/07 10:35:58;;;;;;;15.15;6.22;;;;;;;18.36;69.67;101995.03;5003175;28;20428;-79
2023/06/07 10:38:24;;;;;;;14.80;6.57;;;;;;;18.26;70.61;101986.63;5003144;28;20025;-76
2023/06/07 10:40:51;;;;;;;13.70;6.28;;;;;;;18.18;71.67;101995.81;5002954;28;20329;-76
2023/06/07 10:43:18;;;;;;;16.77;6.82;;;;;;;18.09;71.31;101990.91;5002952;28;20061;-77
2023/06/07 10:45:43;;;;;;;15.25;7.68;;;;;;;18.05;72.56;101982.41;4986093;28;20064;-76
2023/06/07 10:48:34;;;;;;;15.75;6.53;;;;;;;18.02;71.98;101973.91;4985045;28;20113;-78
2023/06/07 10:51:00;;;;;;;13.98;7.28;;;;;;;18.01;73.36;101977.66;5003052;28;20088;-76
2023/06/07 10:53:26;;;;;;;10.57;6.35;;;;;;;18.10;73.66;101985.28;5003299;28;20037;-76
2023/06/07 10:55:51;;;;;;;15.45;6.28;;;;;;;18.18;73.64;101976.91;5004299;28;20045;-76
2023/06/07 10:58:29;;;;;;;18.85;7.45;;;;;;;18.29;73.56;101974.56;5007097;28;20033;-76
2023/06/07 11:00:55;;;;;;;17.23;7.35;;;;;;;18.30;72.20;101982.41;5006612;28;20038;-76
2023/06/07 11:03:23;;;;;;;20.80;7.90;;;;;;;18.30;72.06;101987.81;4989716;28;20030;-76
2023/06/07 11:05:58;;;;;;;13.88;7.88;;;;;;;18.35;72.69;101982.59;5006700;28;20030;-76
2023/06/07 11:08:27;;;;;;;18.17;7.65;;;;;;;18.39;73.22;101973.00;5006386;28;20026;-76
2023/06/07 11:10:59;;;;;;;15.82;8.27;;;;;;;18.40;72.08;101971.13;5006220;28;20037;-76
2023/06/07 11:13:43;;;;;;;13.20;7.40;;;;;;;18.41;72.64;101959.25;5006726;28;20010;-76
2023/06/07 11:16:23;;;;;;;15.32;7.30;;;;;;;18.42;72.63;101960.94;5006773;28;20022;-76